sensor_id;sensor_type;location;lat;lon;timestamp;P1;durP1;ratioP1;P2;durP2;ratioP2
81026;SDS011;70506;49.320;8.446;2023-10-09T00:00:05;8.52;;;3.35;;
81026;SDS011;70506;49.320;8.446;2023-10-09T00:02:51;7.72;;;3.58;;
81026;SDS011;70506;49.320;8.446;2023-10-09T00:05:16;10.17;;;4.30;;
81026;SDS011;70506;49.320;8.446;2023-10-09T00:07:52;6.72;;;3.70;;
81026;SDS011;70506;49.320;8.446;2023-10-09T00:10:21;10.32;;;3.58;;
81026;SDS011;70506;49.320;8.446;2023-10-09T00:12:46;6.32;;;3.28;;
81026;SDS011;70506;49.320;8.446;2023-10-09T00:15:14;7.93;;;4.03;;
81026;SDS011;70506;49.320;8.446;2023-10-09T00:17:42;10.88;;;3.90;;
81026;SDS011;70506;49.320;8.446;2023-10-09T00:20:11;9.45;;;3.45;;
81026;SDS011;70506;49.320;8.446;2023-10-09T00:22:56;6.82;;;3.80;;
81026;SDS011;70506;49.320;8.446;2023-10-09T00:25:23;11.52;;;4.30;;
81026;SDS011;70506;49.320;8.446;2023-10-09T00:27:54;12.23;;;3.85;;
81026;SDS011;70506;49.320;8.446;2023-10-09T00:30:20;15.75;;;4.20;;
81026;SDS011;70506;49.320;8.446;2023-10-09T00:32:54;10.32;;;3.80;;
81026;SDS011;70506;49.320;8.446;2023-10-09T00:35:20;8.43;;;3.78;;
81026;SDS011;70506;49.320;8.446;2023-10-09T00:38:08;7.20;;;3.65;;
81026;SDS011;70506;49.320;8.446;2023-10-09T00:40:56;7.15;;;3.63;;
81026;SDS011;70506;49.320;8.446;2023-10-09T00:45:54;12.40;;;3.28;;
81026;SDS011;70506;49.320;8.446;2023-10-09T00:48:19;10.07;;;3.72;;
81026;SDS011;70506;49.320;8.446;2023-10-09T00:50:56;11.13;;;3.45;;
81026;SDS011;70506;49.320;8.446;2023-10-09T00:53:25;8.20;;;3.92;;
81026;SDS011;70506;49.320;8.446;2023-10-09T00:55:56;9.45;;;3.45;;
81026;SDS011;70506;49.320;8.446;2023-10-09T00:58:24;9.88;;;4.05;;
81026;SDS011;70506;49.320;8.446;2023-10-09T01:00:52;7.05;;;3.88;;
81026;SDS011;70506;49.320;8.446;2023-10-09T01:03:18;8.35;;;3.58;;
81026;SDS011;70506;49.320;8.446;2023-10-09T01:05:46;10.00;;;3.53;;
81026;SDS011;70506;49.320;8.446;2023-10-09T01:08:34;7.55;;;3.47;;
81026;SDS011;70506;49.320;8.446;2023-10-09T01:11:06;10.40;;;3.25;;
81026;SDS011;70506;49.320;8.446;2023-10-09T01:13:44;8.38;;;3.08;;
81026;SDS011;70506;49.320;8.446;2023-10-09T01:16:15;10.68;;;3.80;;
81026;SDS011;70506;49.320;8.446;2023-10-09T01:18:47;8.15;;;3.03;;
81026;SDS011;70506;49.320;8.446;2023-10-09T01:21:16;6.25;;;3.25;;
81026;SDS011;70506;49.320;8.446;2023-10-09T01:23:45;10.77;;;3.10;;
81026;SDS011;70506;49.320;8.446;2023-10-09T01:26:34;7.55;;;3.22;;
81026;SDS011;70506;49.320;8.446;2023-10-09T01:29:04;9.77;;;3.90;;
81026;SDS011;70506;49.320;8.446;2023-10-09T01:31:35;7.53;;;3.08;;
81026;SDS011;70506;49.320;8.446;2023-10-09T01:34:03;13.63;;;2.90;;
81026;SDS011;70506;49.320;8.446;2023-10-09T01:36:34;8.38;;;3.20;;
81026;SDS011;70506;49.320;8.446;2023-10-09T01:39:04;9.13;;;3.25;;
81026;SDS011;70506;49.320;8.446;2023-10-09T01:41:50;10.40;;;3.38;;
81026;SDS011;70506;49.320;8.446;2023-10-09T01:44:23;6.90;;;3.70;;
81026;SDS011;70506;49.320;8.446;2023-10-09T01:46:50;12.43;;;3.50;;
81026;SDS011;70506;49.320;8.446;2023-10-09T01:49:19;12.25;;;3.60;;
81026;SDS011;70506;49.320;8.446;2023-10-09T01:51:54;8.75;;;3.30;;
81026;SDS011;70506;49.320;8.446;2023-10-09T01:54:23;7.45;;;3.42;;
81026;SDS011;70506;49.320;8.446;2023-10-09T01:57:05;8.52;;;3.30;;
81026;SDS011;70506;49.320;8.446;2023-10-09T01:59:36;9.40;;;3.38;;
81026;SDS011;70506;49.320;8.446;2023-10-09T02:02:05;6.28;;;2.83;;
81026;SDS011;70506;49.320;8.446;2023-10-09T02:04:40;7.75;;;3.15;;
81026;SDS011;70506;49.320;8.446;2023-10-09T02:07:06;11.25;;;3.85;;
81026;SDS011;70506;49.320;8.446;2023-10-09T02:09:33;9.88;;;3.13;;
81026;SDS011;70506;49.320;8.446;2023-10-09T02:14:25;13.18;;;2.90;;
81026;SDS011;70506;49.320;8.446;2023-10-09T02:16:51;12.23;;;3.42;;
81026;SDS011;70506;49.320;8.446;2023-10-09T02:19:42;8.70;;;3.17;;
81026;SDS011;70506;49.320;8.446;2023-10-09T02:22:14;8.82;;;3.70;;
81026;SDS011;70506;49.320;8.446;2023-10-09T02:24:43;11.18;;;3.70;;
81026;SDS011;70506;49.320;8.446;2023-10-09T02:27:30;11.93;;;3.28;;
81026;SDS011;70506;49.320;8.446;2023-10-09T02:30:09;13.63;;;3.70;;
81026;SDS011;70506;49.320;8.446;2023-10-09T02:32:43;7.85;;;3.00;;
81026;SDS011;70506;49.320;8.446;2023-10-09T02:35:12;11.82;;;3.28;;
81026;SDS011;70506;49.320;8.446;2023-10-09T02:38:00;9.88;;;3.38;;
81026;SDS011;70506;49.320;8.446;2023-10-09T02:40:29;10.20;;;3.17;;
81026;SDS011;70506;49.320;8.446;2023-10-09T02:43:04;11.50;;;3.28;;
81026;SDS011;70506;49.320;8.446;2023-10-09T02:45:30;13.30;;;3.53;;
81026;SDS011;70506;49.320;8.446;2023-10-09T02:48:00;7.88;;;2.85;;
81026;SDS011;70506;49.320;8.446;2023-10-09T02:50:34;8.32;;;2.70;;
81026;SDS011;70506;49.320;8.446;2023-10-09T02:53:02;8.93;;;3.25;;
81026;SDS011;70506;49.320;8.446;2023-10-09T02:55:34;12.38;;;3.78;;
81026;SDS011;70506;49.320;8.446;2023-10-09T02:58:03;9.80;;;3.45;;
81026;SDS011;70506;49.320;8.446;2023-10-09T03:00:36;15.57;;;3.33;;
81026;SDS011;70506;49.320;8.446;2023-10-09T03:05:29;8.65;;;3.20;;
81026;SDS011;70506;49.320;8.446;2023-10-09T03:07:55;4.90;;;2.87;;
81026;SDS011;70506;49.320;8.446;2023-10-09T03:10:23;7.43;;;2.60;;
81026;SDS011;70506;49.320;8.446;2023-10-09T03:12:49;10.00;;;3.20;;
81026;SDS011;70506;49.320;8.446;2023-10-09T03:15:18;7.43;;;3.25;;
81026;SDS011;70506;49.320;8.446;2023-10-09T03:17:46;9.27;;;3.40;;
81026;SDS011;70506;49.320;8.446;2023-10-09T03:20:15;6.80;;;2.80;;
81026;SDS011;70506;49.320;8.446;2023-10-09T03:22:42;10.50;;;3.15;;
81026;SDS011;70506;49.320;8.446;2023-10-09T03:25:09;7.38;;;3.15;;
81026;SDS011;70506;49.320;8.446;2023-10-09T03:27:40;8.02;;;3.10;;
81026;SDS011;70506;49.320;8.446;2023-10-09T03:30:11;13.93;;;3.70;;
81026;SDS011;70506;49.320;8.446;2023-10-09T03:32:45;8.65;;;3.03;;
81026;SDS011;70506;49.320;8.446;2023-10-09T03:35:15;9.48;;;3.53;;
81026;SDS011;70506;49.320;8.446;2023-10-09T03:37:48;12.25;;;3.20;;
81026;SDS011;70506;49.320;8.446;2023-10-09T03:40:14;10.18;;;3.42;;
81026;SDS011;70506;49.320;8.446;2023-10-09T03:42:42;7.90;;;3.25;;
81026;SDS011;70506;49.320;8.446;2023-10-09T03:45:09;8.30;;;3.10;;
81026;SDS011;70506;49.320;8.446;2023-10-09T03:47:43;7.50;;;2.88;;
81026;SDS011;70506;49.320;8.446;2023-10-09T03:50:13;12.82;;;3.28;;
81026;SDS011;70506;49.320;8.446;2023-10-09T03:53:01;10.32;;;3.35;;
81026;SDS011;70506;49.320;8.446;2023-10-09T03:55:28;15.18;;;2.88;;
81026;SDS011;70506;49.320;8.446;2023-10-09T03:57:54;11.00;;;2.70;;
81026;SDS011;70506;49.320;8.446;2023-10-09T04:00:22;8.32;;;3.15;;
81026;SDS011;70506;49.320;8.446;2023-10-09T04:02:53;14.57;;;3.90;;
81026;SDS011;70506;49.320;8.446;2023-10-09T04:05:19;9.43;;;3.33;;
81026;SDS011;70506;49.320;8.446;2023-10-09T04:07:45;15.65;;;3.53;;
81026;SDS011;70506;49.320;8.446;2023-10-09T04:10:10;13.27;;;3.08;;
81026;SDS011;70506;49.320;8.446;2023-10-09T04:12:54;15.50;;;3.65;;
81026;SDS011;70506;49.320;8.446;2023-10-09T04:15:23;11.25;;;2.90;;
81026;SDS011;70506;49.320;8.446;2023-10-09T04:17:49;9.25;;;2.83;;
81026;SDS011;70506;49.320;8.446;2023-10-09T04:20:18;7.82;;;3.25;;
81026;SDS011;70506;49.320;8.446;2023-10-09T04:22:43;9.43;;;2.85;;
81026;SDS011;70506;49.320;8.446;2023-10-09T04:25:27;12.82;;;3.58;;
81026;SDS011;70506;49.320;8.446;2023-10-09T04:28:06;7.82;;;2.80;;
81026;SDS011;70506;49.320;8.446;2023-10-09T04:30:43;10.63;;;3.03;;
81026;SDS011;70506;49.320;8.446;2023-10-09T04:33:09;10.93;;;3.55;;
81026;SDS011;70506;49.320;8.446;2023-10-09T04:36:03;11.10;;;3.05;;
81026;SDS011;70506;49.320;8.446;2023-10-09T04:38:44;10.40;;;3.35;;
81026;SDS011;70506;49.320;8.446;2023-10-09T04:41:28;7.55;;;3.05;;
81026;SDS011;70506;49.320;8.446;2023-10-09T04:43:56;10.13;;;2.97;;
81026;SDS011;70506;49.320;8.446;2023-10-09T04:46:39;11.52;;;3.50;;
81026;SDS011;70506;49.320;8.446;2023-10-09T04:49:09;11.82;;;2.75;;
81026;SDS011;70506;49.320;8.446;2023-10-09T04:51:53;11.35;;;3.30;;
81026;SDS011;70506;49.320;8.446;2023-10-09T04:54:34;10.80;;;3.00;;
81026;SDS011;70506;49.320;8.446;2023-10-09T04:57:26;10.57;;;2.97;;
81026;SDS011;70506;49.320;8.446;2023-10-09T04:59:51;12.10;;;3.15;;
81026;SDS011;70506;49.320;8.446;2023-10-09T05:02:16;13.13;;;3.13;;
81026;SDS011;70506;49.320;8.446;2023-10-09T05:04:45;11.88;;;2.97;;
81026;SDS011;70506;49.320;8.446;2023-10-09T05:07:13;13.68;;;3.13;;
81026;SDS011;70506;49.320;8.446;2023-10-09T05:10:10;8.45;;;3.00;;
81026;SDS011;70506;49.320;8.446;2023-10-09T05:12:42;8.05;;;3.45;;
81026;SDS011;70506;49.320;8.446;2023-10-09T05:15:22;8.23;;;2.90;;
81026;SDS011;70506;49.320;8.446;2023-10-09T05:17:55;11.27;;;3.70;;
81026;SDS011;70506;49.320;8.446;2023-10-09T05:20:23;10.38;;;3.40;;
81026;SDS011;70506;49.320;8.446;2023-10-09T05:22:51;8.70;;;2.80;;
81026;SDS011;70506;49.320;8.446;2023-10-09T05:25:23;10.98;;;2.92;;
81026;SDS011;70506;49.320;8.446;2023-10-09T05:28:15;10.07;;;3.58;;
81026;SDS011;70506;49.320;8.446;2023-10-09T05:30:50;7.93;;;2.83;;
81026;SDS011;70506;49.320;8.446;2023-10-09T05:33:27;11.15;;;2.53;;
81026;SDS011;70506;49.320;8.446;2023-10-09T05:35:54;11.38;;;3.15;;
81026;SDS011;70506;49.320;8.446;2023-10-09T05:38:37;13.00;;;3.03;;
81026;SDS011;70506;49.320;8.446;2023-10-09T05:41:11;10.10;;;2.63;;
81026;SDS011;70506;49.320;8.446;2023-10-09T05:44:06;9.05;;;3.00;;
81026;SDS011;70506;49.320;8.446;2023-10-09T05:47:00;8.98;;;3.17;;
81026;SDS011;70506;49.320;8.446;2023-10-09T05:50:04;10.95;;;3.35;;
81026;SDS011;70506;49.320;8.446;2023-10-09T05:52:32;10.55;;;3.30;;
81026;SDS011;70506;49.320;8.446;2023-10-09T05:55:04;9.15;;;3.00;;
81026;SDS011;70506;49.320;8.446;2023-10-09T05:57:54;11.48;;;2.80;;
81026;SDS011;70506;49.320;8.446;2023-10-09T06:00:38;13.25;;;3.05;;
81026;SDS011;70506;49.320;8.446;2023-10-09T06:03:22;12.15;;;2.75;;
81026;SDS011;70506;49.320;8.446;2023-10-09T06:05:52;12.77;;;3.03;;
81026;SDS011;70506;49.320;8.446;2023-10-09T06:08:18;8.60;;;2.95;;
81026;SDS011;70506;49.320;8.446;2023-10-09T06:11:03;11.27;;;3.47;;
81026;SDS011;70506;49.320;8.446;2023-10-09T06:13:51;6.70;;;2.65;;
81026;SDS011;70506;49.320;8.446;2023-10-09T06:16:28;14.68;;;3.53;;
81026;SDS011;70506;49.320;8.446;2023-10-09T06:19:06;14.88;;;3.10;;
81026;SDS011;70506;49.320;8.446;2023-10-09T06:21:45;8.60;;;2.85;;
81026;SDS011;70506;49.320;8.446;2023-10-09T06:24:16;9.65;;;2.80;;
81026;SDS011;70506;49.320;8.446;2023-10-09T06:29:28;14.18;;;3.40;;
81026;SDS011;70506;49.320;8.446;2023-10-09T06:32:07;10.30;;;2.97;;
81026;SDS011;70506;49.320;8.446;2023-10-09T06:34:52;11.77;;;2.63;;
81026;SDS011;70506;49.320;8.446;2023-10-09T06:37:25;14.02;;;3.17;;
81026;SDS011;70506;49.320;8.446;2023-10-09T06:42:20;11.45;;;2.97;;
81026;SDS011;70506;49.320;8.446;2023-10-09T06:45:05;10.63;;;3.28;;
81026;SDS011;70506;49.320;8.446;2023-10-09T06:47:33;17.02;;;3.45;;
81026;SDS011;70506;49.320;8.446;2023-10-09T06:50:09;9.98;;;3.20;;
81026;SDS011;70506;49.320;8.446;2023-10-09T06:52:50;11.98;;;3.20;;
81026;SDS011;70506;49.320;8.446;2023-10-09T06:55:23;9.45;;;2.78;;
81026;SDS011;70506;49.320;8.446;2023-10-09T06:58:00;13.05;;;3.28;;
81026;SDS011;70506;49.320;8.446;2023-10-09T07:00:40;15.35;;;2.65;;
81026;SDS011;70506;49.320;8.446;2023-10-09T07:03:24;13.10;;;3.63;;
81026;SDS011;70506;49.320;8.446;2023-10-09T07:06:07;9.73;;;2.63;;
81026;SDS011;70506;49.320;8.446;2023-10-09T07:08:50;7.80;;;2.35;;
81026;SDS011;70506;49.320;8.446;2023-10-09T07:11:41;10.52;;;3.67;;
81026;SDS011;70506;49.320;8.446;2023-10-09T07:17:07;14.52;;;3.08;;
81026;SDS011;70506;49.320;8.446;2023-10-09T07:19:45;10.65;;;2.70;;
81026;SDS011;70506;49.320;8.446;2023-10-09T07:22:13;11.63;;;2.67;;
81026;SDS011;70506;49.320;8.446;2023-10-09T07:24:45;12.65;;;3.08;;
81026;SDS011;70506;49.320;8.446;2023-10-09T07:27:30;8.05;;;2.40;;
81026;SDS011;70506;49.320;8.446;2023-10-09T07:30:09;11.25;;;3.00;;
81026;SDS011;70506;49.320;8.446;2023-10-09T07:32:56;9.45;;;2.67;;
81026;SDS011;70506;49.320;8.446;2023-10-09T07:35:45;11.15;;;2.65;;
81026;SDS011;70506;49.320;8.446;2023-10-09T07:40:48;13.23;;;3.05;;
81026;SDS011;70506;49.320;8.446;2023-10-09T07:43:28;11.80;;;3.25;;
81026;SDS011;70506;49.320;8.446;2023-10-09T07:46:02;11.48;;;2.30;;
81026;SDS011;70506;49.320;8.446;2023-10-09T07:48:27;12.98;;;2.83;;
81026;SDS011;70506;49.320;8.446;2023-10-09T07:51:03;14.10;;;3.85;;
81026;SDS011;70506;49.320;8.446;2023-10-09T07:53:37;9.85;;;2.55;;
81026;SDS011;70506;49.320;8.446;2023-10-09T07:56:10;14.15;;;2.92;;
81026;SDS011;70506;49.320;8.446;2023-10-09T07:58:46;8.93;;;2.22;;
81026;SDS011;70506;49.320;8.446;2023-10-09T08:01:15;11.82;;;2.75;;
81026;SDS011;70506;49.320;8.446;2023-10-09T08:03:40;8.73;;;2.40;;
81026;SDS011;70506;49.320;8.446;2023-10-09T08:06:06;8.68;;;2.88;;
81026;SDS011;70506;49.320;8.446;2023-10-09T08:08:50;10.43;;;2.65;;
81026;SDS011;70506;49.320;8.446;2023-10-09T08:11:28;13.45;;;2.90;;
81026;SDS011;70506;49.320;8.446;2023-10-09T08:14:14;9.13;;;3.38;;
81026;SDS011;70506;49.320;8.446;2023-10-09T08:17:05;9.95;;;2.40;;
81026;SDS011;70506;49.320;8.446;2023-10-09T08:19:50;10.55;;;2.30;;
81026;SDS011;70506;49.320;8.446;2023-10-09T08:22:25;7.75;;;2.50;;
81026;SDS011;70506;49.320;8.446;2023-10-09T08:24:54;10.82;;;2.75;;
81026;SDS011;70506;49.320;8.446;2023-10-09T08:27:23;8.77;;;2.50;;
81026;SDS011;70506;49.320;8.446;2023-10-09T08:29:58;8.40;;;2.45;;
81026;SDS011;70506;49.320;8.446;2023-10-09T08:32:45;15.35;;;2.92;;
81026;SDS011;70506;49.320;8.446;2023-10-09T08:35:26;11.57;;;2.63;;
81026;SDS011;70506;49.320;8.446;2023-10-09T08:37:56;15.82;;;2.70;;
81026;SDS011;70506;49.320;8.446;2023-10-09T08:40:32;9.13;;;2.75;;
81026;SDS011;70506;49.320;8.446;2023-10-09T08:43:17;9.35;;;2.78;;
81026;SDS011;70506;49.320;8.446;2023-10-09T08:45:45;10.93;;;2.25;;
81026;SDS011;70506;49.320;8.446;2023-10-09T08:48:12;10.25;;;2.55;;
81026;SDS011;70506;49.320;8.446;2023-10-09T08:50:43;7.75;;;2.38;;
81026;SDS011;70506;49.320;8.446;2023-10-09T08:53:13;9.00;;;2.42;;
81026;SDS011;70506;49.320;8.446;2023-10-09T08:55:39;8.50;;;2.90;;
81026;SDS011;70506;49.320;8.446;2023-10-09T08:58:06;9.38;;;2.45;;
81026;SDS011;70506;49.320;8.446;2023-10-09T09:00:46;16.30;;;2.85;;
81026;SDS011;70506;49.320;8.446;2023-10-09T09:03:15;7.95;;;2.45;;
81026;SDS011;70506;49.320;8.446;2023-10-09T09:05:42;10.82;;;2.47;;
81026;SDS011;70506;49.320;8.446;2023-10-09T09:10:56;9.45;;;2.17;;
81026;SDS011;70506;49.320;8.446;2023-10-09T09:13:36;6.78;;;2.40;;
81026;SDS011;70506;49.320;8.446;2023-10-09T09:18:27;12.60;;;2.90;;
81026;SDS011;70506;49.320;8.446;2023-10-09T09:21:16;10.88;;;2.80;;
81026;SDS011;70506;49.320;8.446;2023-10-09T09:23:54;10.90;;;2.40;;
81026;SDS011;70506;49.320;8.446;2023-10-09T09:26:36;14.93;;;3.05;;
81026;SDS011;70506;49.320;8.446;2023-10-09T09:29:03;11.63;;;2.55;;
81026;SDS011;70506;49.320;8.446;2023-10-09T09:31:30;10.98;;;2.85;;
81026;SDS011;70506;49.320;8.446;2023-10-09T09:34:02;12.00;;;2.75;;
81026;SDS011;70506;49.320;8.446;2023-10-09T09:36:51;7.88;;;2.90;;
81026;SDS011;70506;49.320;8.446;2023-10-09T09:39:25;10.48;;;2.40;;
81026;SDS011;70506;49.320;8.446;2023-10-09T09:41:55;8.65;;;2.40;;
81026;SDS011;70506;49.320;8.446;2023-10-09T09:44:22;12.18;;;2.35;;
81026;SDS011;70506;49.320;8.446;2023-10-09T09:46:51;7.45;;;2.88;;
81026;SDS011;70506;49.320;8.446;2023-10-09T09:49:18;10.25;;;2.30;;
81026;SDS011;70506;49.320;8.446;2023-10-09T09:51:46;15.18;;;2.83;;
81026;SDS011;70506;49.320;8.446;2023-10-09T09:54:15;9.40;;;2.15;;
81026;SDS011;70506;49.320;8.446;2023-10-09T09:56:42;11.15;;;3.33;;
81026;SDS011;70506;49.320;8.446;2023-10-09T09:59:15;9.25;;;2.25;;
81026;SDS011;70506;49.320;8.446;2023-10-09T10:01:47;6.15;;;2.28;;
81026;SDS011;70506;49.320;8.446;2023-10-09T10:04:21;13.88;;;2.88;;
81026;SDS011;70506;49.320;8.446;2023-10-09T10:06:50;10.07;;;2.70;;
81026;SDS011;70506;49.320;8.446;2023-10-09T10:09:39;8.15;;;2.17;;
81026;SDS011;70506;49.320;8.446;2023-10-09T10:12:06;12.02;;;2.38;;
81026;SDS011;70506;49.320;8.446;2023-10-09T10:14:51;6.80;;;2.22;;
81026;SDS011;70506;49.320;8.446;2023-10-09T10:17:24;6.97;;;2.03;;
81026;SDS011;70506;49.320;8.446;2023-10-09T10:22:44;8.30;;;2.08;;
81026;SDS011;70506;49.320;8.446;2023-10-09T10:28:31;7.03;;;2.45;;
81026;SDS011;70506;49.320;8.446;2023-10-09T10:31:09;7.65;;;2.13;;
81026;SDS011;70506;49.320;8.446;2023-10-09T10:36:21;11.48;;;2.25;;
81026;SDS011;70506;49.320;8.446;2023-10-09T10:41:55;11.88;;;2.55;;
81026;SDS011;70506;49.320;8.446;2023-10-09T10:44:29;5.90;;;2.05;;
81026;SDS011;70506;49.320;8.446;2023-10-09T10:47:05;9.25;;;2.58;;
81026;SDS011;70506;49.320;8.446;2023-10-09T10:49:47;9.70;;;2.58;;
81026;SDS011;70506;49.320;8.446;2023-10-09T10:52:32;9.02;;;2.88;;
81026;SDS011;70506;49.320;8.446;2023-10-09T10:55:10;10.57;;;2.30;;
81026;SDS011;70506;49.320;8.446;2023-10-09T10:57:54;8.73;;;1.80;;
81026;SDS011;70506;49.320;8.446;2023-10-09T11:00:35;7.93;;;2.08;;
81026;SDS011;70506;49.320;8.446;2023-10-09T11:03:19;9.40;;;2.60;;
81026;SDS011;70506;49.320;8.446;2023-10-09T11:05:54;10.32;;;2.08;;
81026;SDS011;70506;49.320;8.446;2023-10-09T11:08:43;6.47;;;1.95;;
81026;SDS011;70506;49.320;8.446;2023-10-09T11:11:19;7.57;;;2.30;;
81026;SDS011;70506;49.320;8.446;2023-10-09T11:13:44;5.63;;;3.20;;
81026;SDS011;70506;49.320;8.446;2023-10-09T11:16:19;14.05;;;2.85;;
81026;SDS011;70506;49.320;8.446;2023-10-09T11:19:07;12.75;;;2.50;;
81026;SDS011;70506;49.320;8.446;2023-10-09T11:21:59;14.88;;;2.60;;
81026;SDS011;70506;49.320;8.446;2023-10-09T11:24:32;6.70;;;2.35;;
81026;SDS011;70506;49.320;8.446;2023-10-09T11:26:59;10.25;;;2.10;;
81026;SDS011;70506;49.320;8.446;2023-10-09T11:29:30;5.55;;;2.10;;
81026;SDS011;70506;49.320;8.446;2023-10-09T11:32:08;9.35;;;2.45;;
81026;SDS011;70506;49.320;8.446;2023-10-09T11:34:36;10.75;;;2.72;;
81026;SDS011;70506;49.320;8.446;2023-10-09T11:39:37;13.00;;;2.65;;
81026;SDS011;70506;49.320;8.446;2023-10-09T11:42:16;6.20;;;2.20;;
81026;SDS011;70506;49.320;8.446;2023-10-09T11:45:00;9.32;;;1.88;;
81026;SDS011;70506;49.320;8.446;2023-10-09T11:47:34;9.00;;;2.58;;
81026;SDS011;70506;49.320;8.446;2023-10-09T11:50:00;7.70;;;2.22;;
81026;SDS011;70506;49.320;8.446;2023-10-09T11:52:26;9.68;;;2.28;;
81026;SDS011;70506;49.320;8.446;2023-10-09T11:55:01;7.88;;;2.70;;
81026;SDS011;70506;49.320;8.446;2023-10-09T11:57:28;5.88;;;2.38;;
81026;SDS011;70506;49.320;8.446;2023-10-09T11:59:58;10.05;;;2.45;;
81026;SDS011;70506;49.320;8.446;2023-10-09T12:02:25;8.38;;;2.25;;
81026;SDS011;70506;49.320;8.446;2023-10-09T12:04:50;9.02;;;2.45;;
81026;SDS011;70506;49.320;8.446;2023-10-09T12:07:16;12.52;;;2.13;;
81026;SDS011;70506;49.320;8.446;2023-10-09T12:09:41;6.68;;;2.17;;
81026;SDS011;70506;49.320;8.446;2023-10-09T12:12:07;8.70;;;2.13;;
81026;SDS011;70506;49.320;8.446;2023-10-09T12:14:36;6.03;;;1.92;;
81026;SDS011;70506;49.320;8.446;2023-10-09T12:17:06;6.80;;;2.22;;
81026;SDS011;70506;49.320;8.446;2023-10-09T12:19:32;10.27;;;2.58;;
81026;SDS011;70506;49.320;8.446;2023-10-09T12:21:58;10.55;;;2.45;;
81026;SDS011;70506;49.320;8.446;2023-10-09T12:24:25;8.27;;;2.22;;
81026;SDS011;70506;49.320;8.446;2023-10-09T12:26:54;10.05;;;2.47;;
81026;SDS011;70506;49.320;8.446;2023-10-09T12:29:20;9.93;;;2.58;;
81026;SDS011;70506;49.320;8.446;2023-10-09T12:31:45;9.87;;;2.00;;
81026;SDS011;70506;49.320;8.446;2023-10-09T12:34:11;5.82;;;2.45;;
81026;SDS011;70506;49.320;8.446;2023-10-09T12:36:41;12.40;;;2.67;;
81026;SDS011;70506;49.320;8.446;2023-10-09T12:39:10;10.98;;;2.90;;
81026;SDS011;70506;49.320;8.446;2023-10-09T12:41:43;6.15;;;1.92;;
81026;SDS011;70506;49.320;8.446;2023-10-09T12:44:10;9.55;;;2.90;;
81026;SDS011;70506;49.320;8.446;2023-10-09T12:46:44;9.40;;;2.30;;
81026;SDS011;70506;49.320;8.446;2023-10-09T12:49:17;6.82;;;2.08;;
81026;SDS011;70506;49.320;8.446;2023-10-09T12:51:54;8.13;;;2.30;;
81026;SDS011;70506;49.320;8.446;2023-10-09T12:54:21;9.02;;;2.47;;
81026;SDS011;70506;49.320;8.446;2023-10-09T12:56:52;7.28;;;2.50;;
81026;SDS011;70506;49.320;8.446;2023-10-09T12:59:17;10.60;;;2.65;;
81026;SDS011;70506;49.320;8.446;2023-10-09T13:01:44;11.38;;;2.55;;
81026;SDS011;70506;49.320;8.446;2023-10-09T13:04:11;11.85;;;2.95;;
81026;SDS011;70506;49.320;8.446;2023-10-09T13:06:40;6.15;;;2.65;;
81026;SDS011;70506;49.320;8.446;2023-10-09T13:09:09;5.57;;;2.42;;
81026;SDS011;70506;49.320;8.446;2023-10-09T13:11:35;8.05;;;2.58;;
81026;SDS011;70506;49.320;8.446;2023-10-09T13:14:02;8.88;;;2.85;;
81026;SDS011;70506;49.320;8.446;2023-10-09T13:16:36;5.95;;;2.10;;
81026;SDS011;70506;49.320;8.446;2023-10-09T13:19:02;9.57;;;2.67;;
81026;SDS011;70506;49.320;8.446;2023-10-09T13:21:34;5.65;;;2.45;;
81026;SDS011;70506;49.320;8.446;2023-10-09T13:24:02;6.30;;;2.17;;
81026;SDS011;70506;49.320;8.446;2023-10-09T13:26:28;6.57;;;2.72;;
81026;SDS011;70506;49.320;8.446;2023-10-09T13:28:55;10.43;;;2.70;;
81026;SDS011;70506;49.320;8.446;2023-10-09T13:31:22;7.95;;;2.95;;
81026;SDS011;70506;49.320;8.446;2023-10-09T13:33:51;7.57;;;2.67;;
81026;SDS011;70506;49.320;8.446;2023-10-09T13:36:20;10.63;;;3.45;;
81026;SDS011;70506;49.320;8.446;2023-10-09T13:38:55;9.02;;;2.83;;
81026;SDS011;70506;49.320;8.446;2023-10-09T13:41:43;6.13;;;2.42;;
81026;SDS011;70506;49.320;8.446;2023-10-09T13:44:08;9.57;;;2.80;;
81026;SDS011;70506;49.320;8.446;2023-10-09T13:46:34;5.68;;;2.45;;
81026;SDS011;70506;49.320;8.446;2023-10-09T13:51:37;9.60;;;2.60;;
81026;SDS011;70506;49.320;8.446;2023-10-09T13:54:12;8.30;;;2.72;;
81026;SDS011;70506;49.320;8.446;2023-10-09T13:56:45;8.95;;;2.60;;
81026;SDS011;70506;49.320;8.446;2023-10-09T13:59:11;6.70;;;2.70;;
81026;SDS011;70506;49.320;8.446;2023-10-09T14:01:37;11.03;;;2.60;;
81026;SDS011;70506;49.320;8.446;2023-10-09T14:04:04;7.57;;;2.33;;
81026;SDS011;70506;49.320;8.446;2023-10-09T14:06:31;15.57;;;2.90;;
81026;SDS011;70506;49.320;8.446;2023-10-09T14:08:57;6.03;;;2.42;;
81026;SDS011;70506;49.320;8.446;2023-10-09T14:11:23;10.18;;;2.80;;
81026;SDS011;70506;49.320;8.446;2023-10-09T14:13:49;7.63;;;2.70;;
81026;SDS011;70506;49.320;8.446;2023-10-09T14:16:16;11.27;;;2.97;;
81026;SDS011;70506;49.320;8.446;2023-10-09T14:18:53;6.93;;;2.78;;
81026;SDS011;70506;49.320;8.446;2023-10-09T14:21:21;8.68;;;3.15;;
81026;SDS011;70506;49.320;8.446;2023-10-09T14:23:50;10.65;;;2.95;;
81026;SDS011;70506;49.320;8.446;2023-10-09T14:26:15;7.07;;;2.33;;
81026;SDS011;70506;49.320;8.446;2023-10-09T14:28:43;9.32;;;2.67;;
81026;SDS011;70506;49.320;8.446;2023-10-09T14:31:08;6.82;;;2.95;;
81026;SDS011;70506;49.320;8.446;2023-10-09T14:33:37;7.07;;;2.47;;
81026;SDS011;70506;49.320;8.446;2023-10-09T14:36:02;6.43;;;2.83;;
81026;SDS011;70506;49.320;8.446;2023-10-09T14:38:30;7.43;;;2.50;;
81026;SDS011;70506;49.320;8.446;2023-10-09T14:40:58;8.80;;;2.60;;
81026;SDS011;70506;49.320;8.446;2023-10-09T14:43:24;7.10;;;2.63;;
81026;SDS011;70506;49.320;8.446;2023-10-09T14:45:53;5.65;;;2.45;;
81026;SDS011;70506;49.320;8.446;2023-10-09T14:48:19;9.68;;;2.92;;
81026;SDS011;70506;49.320;8.446;2023-10-09T14:50:50;6.72;;;2.63;;
81026;SDS011;70506;49.320;8.446;2023-10-09T14:53:20;8.68;;;2.22;;
81026;SDS011;70506;49.320;8.446;2023-10-09T14:55:46;8.73;;;3.13;;
81026;SDS011;70506;49.320;8.446;2023-10-09T14:58:12;9.25;;;3.03;;
81026;SDS011;70506;49.320;8.446;2023-10-09T15:00:38;12.77;;;2.97;;
81026;SDS011;70506;49.320;8.446;2023-10-09T15:03:03;7.82;;;2.55;;
81026;SDS011;70506;49.320;8.446;2023-10-09T15:05:29;5.05;;;2.28;;
81026;SDS011;70506;49.320;8.446;2023-10-09T15:07:57;10.88;;;2.72;;
81026;SDS011;70506;49.320;8.446;2023-10-09T15:10:22;6.22;;;2.63;;
81026;SDS011;70506;49.320;8.446;2023-10-09T15:12:49;12.18;;;3.08;;
81026;SDS011;70506;49.320;8.446;2023-10-09T15:15:14;8.48;;;2.70;;
81026;SDS011;70506;49.320;8.446;2023-10-09T15:17:40;10.90;;;2.67;;
81026;SDS011;70506;49.320;8.446;2023-10-09T15:20:14;8.98;;;2.72;;
81026;SDS011;70506;49.320;8.446;2023-10-09T15:22:43;7.53;;;3.05;;
81026;SDS011;70506;49.320;8.446;2023-10-09T15:25:09;7.53;;;3.03;;
81026;SDS011;70506;49.320;8.446;2023-10-09T15:27:39;5.80;;;2.63;;
81026;SDS011;70506;49.320;8.446;2023-10-09T15:30:05;5.43;;;2.47;;
81026;SDS011;70506;49.320;8.446;2023-10-09T15:32:38;9.93;;;2.60;;
81026;SDS011;70506;49.320;8.446;2023-10-09T15:37:36;8.43;;;2.70;;
81026;SDS011;70506;49.320;8.446;2023-10-09T15:40:02;7.95;;;2.83;;
81026;SDS011;70506;49.320;8.446;2023-10-09T15:42:39;11.05;;;2.95;;
81026;SDS011;70506;49.320;8.446;2023-10-09T15:45:07;11.27;;;3.55;;
81026;SDS011;70506;49.320;8.446;2023-10-09T15:47:33;9.50;;;2.90;;
81026;SDS011;70506;49.320;8.446;2023-10-09T15:50:01;9.95;;;3.88;;
81026;SDS011;70506;49.320;8.446;2023-10-09T15:52:28;10.52;;;3.08;;
81026;SDS011;70506;49.320;8.446;2023-10-09T15:54:54;10.23;;;3.20;;